sensor_id;sensor_type;location;lat;lon;timestamp;P1;durP1;ratioP1;P2;durP2;ratioP2
35959;SDS011;22043;50.970;7.192;2023-08-17T00:01:33;11.38;;;5.53;;
35959;SDS011;22043;50.970;7.192;2023-08-17T00:03:58;9.90;;;6.13;;
35959;SDS011;22043;50.970;7.192;2023-08-17T00:06:24;9.10;;;5.65;;
35959;SDS011;22043;50.970;7.192;2023-08-17T00:08:51;13.20;;;6.65;;
35959;SDS011;22043;50.970;7.192;2023-08-17T00:11:16;11.00;;;6.13;;
35959;SDS011;22043;50.970;7.192;2023-08-17T00:13:41;8.55;;;5.57;;
35959;SDS011;22043;50.970;7.192;2023-08-17T00:16:07;10.70;;;5.93;;
35959;SDS011;22043;50.970;7.192;2023-08-17T00:18:32;11.77;;;6.50;;
35959;SDS011;22043;50.970;7.192;2023-08-17T00:20:59;9.82;;;6.10;;
35959;SDS011;22043;50.970;7.192;2023-08-17T00:23:25;12.33;;;6.03;;
35959;SDS011;22043;50.970;7.192;2023-08-17T00:25:50;9.10;;;5.95;;
35959;SDS011;22043;50.970;7.192;2023-08-17T00:28:16;11.02;;;6.45;;
35959;SDS011;22043;50.970;7.192;2023-08-17T00:30:42;13.13;;;6.63;;
35959;SDS011;22043;50.970;7.192;2023-08-17T00:33:07;16.65;;;6.43;;
35959;SDS011;22043;50.970;7.192;2023-08-17T00:35:33;9.63;;;5.97;;
35959;SDS011;22043;50.970;7.192;2023-08-17T00:37:59;16.48;;;6.28;;
35959;SDS011;22043;50.970;7.192;2023-08-17T00:40:25;14.50;;;5.55;;
35959;SDS011;22043;50.970;7.192;2023-08-17T00:42:50;11.45;;;5.68;;
35959;SDS011;22043;50.970;7.192;2023-08-17T00:45:17;10.98;;;5.47;;
35959;SDS011;22043;50.970;7.192;2023-08-17T00:47:43;10.48;;;5.45;;
35959;SDS011;22043;50.970;7.192;2023-08-17T00:50:08;10.75;;;5.38;;
35959;SDS011;22043;50.970;7.192;2023-08-17T00:52:35;10.18;;;4.82;;
35959;SDS011;22043;50.970;7.192;2023-08-17T00:55:01;15.93;;;4.82;;
35959;SDS011;22043;50.970;7.192;2023-08-17T00:57:27;11.88;;;4.63;;
35959;SDS011;22043;50.970;7.192;2023-08-17T00:59:53;7.43;;;4.35;;
35959;SDS011;22043;50.970;7.192;2023-08-17T01:02:19;8.07;;;4.20;;
35959;SDS011;22043;50.970;7.192;2023-08-17T01:04:44;15.02;;;4.82;;
35959;SDS011;22043;50.970;7.192;2023-08-17T01:07:10;12.45;;;4.82;;
35959;SDS011;22043;50.970;7.192;2023-08-17T01:09:35;8.52;;;4.28;;
35959;SDS011;22043;50.970;7.192;2023-08-17T01:17:42;9.05;;;4.68;;
35959;SDS011;22043;50.970;7.192;2023-08-17T01:20:10;8.05;;;4.35;;
35959;SDS011;22043;50.970;7.192;2023-08-17T01:22:38;7.90;;;4.00;;
35959;SDS011;22043;50.970;7.192;2023-08-17T01:25:06;7.03;;;4.68;;
35959;SDS011;22043;50.970;7.192;2023-08-17T01:27:41;8.00;;;4.15;;
35959;SDS011;22043;50.970;7.192;2023-08-17T01:30:10;11.85;;;5.20;;
35959;SDS011;22043;50.970;7.192;2023-08-17T01:32:39;9.52;;;5.07;;
35959;SDS011;22043;50.970;7.192;2023-08-17T01:35:16;7.22;;;4.05;;
35959;SDS011;22043;50.970;7.192;2023-08-17T01:37:44;9.27;;;4.60;;
35959;SDS011;22043;50.970;7.192;2023-08-17T01:40:09;6.75;;;4.55;;
35959;SDS011;22043;50.970;7.192;2023-08-17T01:42:36;8.50;;;5.00;;
35959;SDS011;22043;50.970;7.192;2023-08-17T01:45:03;9.43;;;4.38;;
35959;SDS011;22043;50.970;7.192;2023-08-17T01:47:29;8.25;;;4.50;;
35959;SDS011;22043;50.970;7.192;2023-08-17T01:49:55;6.90;;;4.00;;
35959;SDS011;22043;50.970;7.192;2023-08-17T01:52:25;7.43;;;4.65;;
35959;SDS011;22043;50.970;7.192;2023-08-17T01:54:51;11.68;;;4.75;;
35959;SDS011;22043;50.970;7.192;2023-08-17T01:57:17;6.40;;;3.90;;
35959;SDS011;22043;50.970;7.192;2023-08-17T01:59:42;6.63;;;4.20;;
35959;SDS011;22043;50.970;7.192;2023-08-17T02:02:09;7.53;;;4.13;;
35959;SDS011;22043;50.970;7.192;2023-08-17T02:04:36;7.40;;;4.73;;
35959;SDS011;22043;50.970;7.192;2023-08-17T02:07:02;8.07;;;4.78;;
35959;SDS011;22043;50.970;7.192;2023-08-17T02:09:28;8.57;;;4.60;;
35959;SDS011;22043;50.970;7.192;2023-08-17T02:11:53;8.93;;;3.97;;
35959;SDS011;22043;50.970;7.192;2023-08-17T02:14:19;7.68;;;4.80;;
35959;SDS011;22043;50.970;7.192;2023-08-17T02:16:44;8.48;;;4.65;;
35959;SDS011;22043;50.970;7.192;2023-08-17T02:19:10;7.13;;;4.95;;
35959;SDS011;22043;50.970;7.192;2023-08-17T02:21:36;10.52;;;5.03;;
35959;SDS011;22043;50.970;7.192;2023-08-17T02:24:01;8.30;;;4.72;;
35959;SDS011;22043;50.970;7.192;2023-08-17T02:26:27;6.65;;;4.43;;
35959;SDS011;22043;50.970;7.192;2023-08-17T02:28:54;9.10;;;5.03;;
35959;SDS011;22043;50.970;7.192;2023-08-17T02:31:22;6.90;;;4.25;;
35959;SDS011;22043;50.970;7.192;2023-08-17T02:33:48;10.18;;;4.68;;
35959;SDS011;22043;50.970;7.192;2023-08-17T02:36:13;7.95;;;5.18;;
35959;SDS011;22043;50.970;7.192;2023-08-17T02:38:39;9.95;;;4.85;;
35959;SDS011;22043;50.970;7.192;2023-08-17T02:41:04;7.95;;;5.03;;
35959;SDS011;22043;50.970;7.192;2023-08-17T02:43:29;8.73;;;5.93;;
35959;SDS011;22043;50.970;7.192;2023-08-17T02:45:55;10.23;;;5.78;;
35959;SDS011;22043;50.970;7.192;2023-08-17T02:48:20;10.48;;;5.28;;
35959;SDS011;22043;50.970;7.192;2023-08-17T02:50:46;10.63;;;5.22;;
35959;SDS011;22043;50.970;7.192;2023-08-17T02:53:11;9.70;;;6.05;;
35959;SDS011;22043;50.970;7.192;2023-08-17T02:55:37;10.18;;;5.30;;
35959;SDS011;22043;50.970;7.192;2023-08-17T02:58:02;11.32;;;5.88;;
35959;SDS011;22043;50.970;7.192;2023-08-17T03:00:28;12.10;;;5.40;;
35959;SDS011;22043;50.970;7.192;2023-08-17T03:02:53;9.65;;;5.70;;
35959;SDS011;22043;50.970;7.192;2023-08-17T03:05:19;9.35;;;5.25;;
35959;SDS011;22043;50.970;7.192;2023-08-17T03:07:44;10.93;;;5.38;;
35959;SDS011;22043;50.970;7.192;2023-08-17T03:10:09;11.77;;;5.03;;
35959;SDS011;22043;50.970;7.192;2023-08-17T03:12:35;8.35;;;5.03;;
35959;SDS011;22043;50.970;7.192;2023-08-17T03:15:02;9.67;;;5.67;;
35959;SDS011;22043;50.970;7.192;2023-08-17T03:17:29;13.23;;;5.72;;
35959;SDS011;22043;50.970;7.192;2023-08-17T03:19:54;13.45;;;5.60;;
35959;SDS011;22043;50.970;7.192;2023-08-17T03:22:20;11.40;;;5.75;;
35959;SDS011;22043;50.970;7.192;2023-08-17T03:24:46;9.25;;;5.22;;
35959;SDS011;22043;50.970;7.192;2023-08-17T03:27:11;12.18;;;5.18;;
35959;SDS011;22043;50.970;7.192;2023-08-17T03:29:37;8.25;;;4.65;;
35959;SDS011;22043;50.970;7.192;2023-08-17T03:32:02;10.25;;;5.05;;
35959;SDS011;22043;50.970;7.192;2023-08-17T03:34:28;9.98;;;5.43;;
35959;SDS011;22043;50.970;7.192;2023-08-17T03:36:53;13.20;;;5.30;;
35959;SDS011;22043;50.970;7.192;2023-08-17T03:39:19;7.05;;;4.63;;
35959;SDS011;22043;50.970;7.192;2023-08-17T03:41:45;8.07;;;5.40;;
35959;SDS011;22043;50.970;7.192;2023-08-17T03:44:10;9.32;;;4.88;;
35959;SDS011;22043;50.970;7.192;2023-08-17T03:46:35;9.13;;;5.22;;
35959;SDS011;22043;50.970;7.192;2023-08-17T03:49:01;9.45;;;5.15;;
35959;SDS011;22043;50.970;7.192;2023-08-17T03:51:27;12.80;;;5.45;;
35959;SDS011;22043;50.970;7.192;2023-08-17T03:53:52;9.27;;;5.88;;
35959;SDS011;22043;50.970;7.192;2023-08-17T03:56:18;7.28;;;5.28;;
35959;SDS011;22043;50.970;7.192;2023-08-17T03:58:43;11.07;;;5.75;;
35959;SDS011;22043;50.970;7.192;2023-08-17T04:01:09;9.50;;;5.93;;
35959;SDS011;22043;50.970;7.192;2023-08-17T04:03:39;13.38;;;6.28;;
35959;SDS011;22043;50.970;7.192;2023-08-17T04:06:05;10.90;;;6.47;;
35959;SDS011;22043;50.970;7.192;2023-08-17T04:08:31;11.82;;;6.85;;
35959;SDS011;22043;50.970;7.192;2023-08-17T04:10:57;11.98;;;7.63;;
35959;SDS011;22043;50.970;7.192;2023-08-17T04:13:22;9.75;;;6.90;;
35959;SDS011;22043;50.970;7.192;2023-08-17T04:15:49;10.32;;;6.38;;
35959;SDS011;22043;50.970;7.192;2023-08-17T04:18:15;9.75;;;6.47;;
35959;SDS011;22043;50.970;7.192;2023-08-17T04:20:41;11.88;;;6.50;;
35959;SDS011;22043;50.970;7.192;2023-08-17T04:23:07;14.35;;;7.50;;
35959;SDS011;22043;50.970;7.192;2023-08-17T04:25:33;12.20;;;7.35;;
35959;SDS011;22043;50.970;7.192;2023-08-17T04:27:58;13.77;;;7.15;;
35959;SDS011;22043;50.970;7.192;2023-08-17T04:30:24;16.30;;;8.07;;
35959;SDS011;22043;50.970;7.192;2023-08-17T04:32:55;13.15;;;7.95;;
35959;SDS011;22043;50.970;7.192;2023-08-17T04:35:21;13.82;;;6.57;;
35959;SDS011;22043;50.970;7.192;2023-08-17T04:37:46;12.02;;;7.32;;
35959;SDS011;22043;50.970;7.192;2023-08-17T04:40:13;12.85;;;7.63;;
35959;SDS011;22043;50.970;7.192;2023-08-17T04:42:39;14.02;;;7.82;;
35959;SDS011;22043;50.970;7.192;2023-08-17T04:45:05;15.75;;;8.20;;
35959;SDS011;22043;50.970;7.192;2023-08-17T04:47:31;16.53;;;8.83;;
35959;SDS011;22043;50.970;7.192;2023-08-17T04:49:57;13.43;;;8.35;;
35959;SDS011;22043;50.970;7.192;2023-08-17T04:52:22;13.48;;;8.25;;
35959;SDS011;22043;50.970;7.192;2023-08-17T04:54:48;14.38;;;8.32;;
35959;SDS011;22043;50.970;7.192;2023-08-17T04:57:13;16.90;;;8.75;;
35959;SDS011;22043;50.970;7.192;2023-08-17T04:59:40;13.38;;;8.60;;
35959;SDS011;22043;50.970;7.192;2023-08-17T05:02:06;19.65;;;9.05;;
35959;SDS011;22043;50.970;7.192;2023-08-17T05:04:32;17.90;;;8.68;;
35959;SDS011;22043;50.970;7.192;2023-08-17T05:06:57;14.57;;;8.20;;
35959;SDS011;22043;50.970;7.192;2023-08-17T05:09:23;13.85;;;9.02;;
35959;SDS011;22043;50.970;7.192;2023-08-17T05:11:48;15.30;;;8.60;;
35959;SDS011;22043;50.970;7.192;2023-08-17T05:14:14;15.13;;;9.60;;
35959;SDS011;22043;50.970;7.192;2023-08-17T05:16:39;13.30;;;8.95;;
35959;SDS011;22043;50.970;7.192;2023-08-17T05:19:05;16.60;;;9.07;;
35959;SDS011;22043;50.970;7.192;2023-08-17T05:21:31;15.52;;;8.45;;
35959;SDS011;22043;50.970;7.192;2023-08-17T05:23:56;14.05;;;7.93;;
35959;SDS011;22043;50.970;7.192;2023-08-17T05:26:22;18.40;;;9.40;;
35959;SDS011;22043;50.970;7.192;2023-08-17T05:28:48;16.75;;;8.48;;
35959;SDS011;22043;50.970;7.192;2023-08-17T05:31:13;12.68;;;8.07;;
35959;SDS011;22043;50.970;7.192;2023-08-17T05:33:41;15.07;;;7.70;;
35959;SDS011;22043;50.970;7.192;2023-08-17T05:36:07;12.63;;;8.57;;
35959;SDS011;22043;50.970;7.192;2023-08-17T05:38:33;16.08;;;7.88;;
35959;SDS011;22043;50.970;7.192;2023-08-17T05:40:59;14.35;;;8.68;;
35959;SDS011;22043;50.970;7.192;2023-08-17T05:43:24;12.48;;;7.43;;
35959;SDS011;22043;50.970;7.192;2023-08-17T05:45:50;13.15;;;7.85;;
35959;SDS011;22043;50.970;7.192;2023-08-17T05:48:18;17.38;;;8.60;;
35959;SDS011;22043;50.970;7.192;2023-08-17T05:50:44;15.60;;;8.15;;
35959;SDS011;22043;50.970;7.192;2023-08-17T05:53:09;14.35;;;8.43;;
35959;SDS011;22043;50.970;7.192;2023-08-17T05:55:35;16.13;;;8.57;;
35959;SDS011;22043;50.970;7.192;2023-08-17T05:58:00;14.85;;;8.15;;
35959;SDS011;22043;50.970;7.192;2023-08-17T06:00:26;14.55;;;7.78;;
35959;SDS011;22043;50.970;7.192;2023-08-17T06:02:52;14.32;;;7.25;;
35959;SDS011;22043;50.970;7.192;2023-08-17T06:05:17;12.68;;;7.57;;
35959;SDS011;22043;50.970;7.192;2023-08-17T06:07:43;13.50;;;7.68;;
35959;SDS011;22043;50.970;7.192;2023-08-17T06:10:09;12.65;;;8.05;;
35959;SDS011;22043;50.970;7.192;2023-08-17T06:12:35;12.95;;;7.38;;
35959;SDS011;22043;50.970;7.192;2023-08-17T06:15:04;15.27;;;7.35;;
35959;SDS011;22043;50.970;7.192;2023-08-17T06:17:30;16.02;;;7.93;;
35959;SDS011;22043;50.970;7.192;2023-08-17T06:19:55;13.82;;;7.57;;
35959;SDS011;22043;50.970;7.192;2023-08-17T06:22:21;13.85;;;7.97;;
35959;SDS011;22043;50.970;7.192;2023-08-17T06:24:46;16.70;;;7.63;;
35959;SDS011;22043;50.970;7.192;2023-08-17T06:27:14;14.07;;;7.72;;
35959;SDS011;22043;50.970;7.192;2023-08-17T06:29:39;14.15;;;7.38;;
35959;SDS011;22043;50.970;7.192;2023-08-17T06:32:05;14.45;;;7.60;;
35959;SDS011;22043;50.970;7.192;2023-08-17T06:34:30;12.57;;;7.85;;
35959;SDS011;22043;50.970;7.192;2023-08-17T06:36:56;15.48;;;7.50;;
35959;SDS011;22043;50.970;7.192;2023-08-17T06:39:23;13.95;;;7.57;;
35959;SDS011;22043;50.970;7.192;2023-08-17T06:41:48;15.25;;;8.43;;
35959;SDS011;22043;50.970;7.192;2023-08-17T06:44:14;16.55;;;7.90;;
35959;SDS011;22043;50.970;7.192;2023-08-17T06:46:39;13.20;;;7.55;;
35959;SDS011;22043;50.970;7.192;2023-08-17T06:49:05;16.13;;;8.10;;
35959;SDS011;22043;50.970;7.192;2023-08-17T06:51:30;13.45;;;8.30;;
35959;SDS011;22043;50.970;7.192;2023-08-17T06:53:55;16.77;;;7.72;;
35959;SDS011;22043;50.970;7.192;2023-08-17T06:56:21;15.88;;;8.23;;
35959;SDS011;22043;50.970;7.192;2023-08-17T06:58:48;13.32;;;7.60;;
35959;SDS011;22043;50.970;7.192;2023-08-17T07:01:13;15.45;;;7.15;;
35959;SDS011;22043;50.970;7.192;2023-08-17T07:03:39;11.65;;;7.18;;
35959;SDS011;22043;50.970;7.192;2023-08-17T07:06:05;13.45;;;7.35;;
35959;SDS011;22043;50.970;7.192;2023-08-17T07:08:30;12.35;;;6.90;;
35959;SDS011;22043;50.970;7.192;2023-08-17T07:10:58;12.13;;;7.32;;
35959;SDS011;22043;50.970;7.192;2023-08-17T07:13:23;12.75;;;6.82;;
35959;SDS011;22043;50.970;7.192;2023-08-17T07:15:49;10.90;;;5.93;;
35959;SDS011;22043;50.970;7.192;2023-08-17T07:18:14;11.25;;;6.40;;
35959;SDS011;22043;50.970;7.192;2023-08-17T07:20:39;12.85;;;7.57;;
35959;SDS011;22043;50.970;7.192;2023-08-17T07:23:05;12.73;;;6.55;;
35959;SDS011;22043;50.970;7.192;2023-08-17T07:25:30;11.77;;;6.85;;
35959;SDS011;22043;50.970;7.192;2023-08-17T07:27:56;13.13;;;7.43;;
35959;SDS011;22043;50.970;7.192;2023-08-17T07:30:21;13.20;;;7.30;;
35959;SDS011;22043;50.970;7.192;2023-08-17T07:32:47;12.95;;;6.47;;
35959;SDS011;22043;50.970;7.192;2023-08-17T07:35:12;12.40;;;7.05;;
35959;SDS011;22043;50.970;7.192;2023-08-17T07:37:38;12.23;;;6.50;;
35959;SDS011;22043;50.970;7.192;2023-08-17T07:40:03;12.02;;;6.18;;
35959;SDS011;22043;50.970;7.192;2023-08-17T07:42:29;14.15;;;6.03;;
35959;SDS011;22043;50.970;7.192;2023-08-17T07:44:54;11.57;;;5.95;;
35959;SDS011;22043;50.970;7.192;2023-08-17T07:47:20;8.05;;;4.88;;
35959;SDS011;22043;50.970;7.192;2023-08-17T07:49:45;8.98;;;5.20;;
35959;SDS011;22043;50.970;7.192;2023-08-17T07:52:11;8.52;;;5.18;;
35959;SDS011;22043;50.970;7.192;2023-08-17T07:54:36;9.32;;;4.90;;
35959;SDS011;22043;50.970;7.192;2023-08-17T07:57:02;9.80;;;5.03;;
35959;SDS011;22043;50.970;7.192;2023-08-17T07:59:28;10.20;;;4.85;;
35959;SDS011;22043;50.970;7.192;2023-08-17T08:01:54;9.85;;;5.60;;
35959;SDS011;22043;50.970;7.192;2023-08-17T08:04:19;10.35;;;5.30;;
35959;SDS011;22043;50.970;7.192;2023-08-17T08:06:45;12.55;;;5.50;;
35959;SDS011;22043;50.970;7.192;2023-08-17T08:09:11;10.13;;;5.60;;
35959;SDS011;22043;50.970;7.192;2023-08-17T08:11:37;9.05;;;4.72;;
35959;SDS011;22043;50.970;7.192;2023-08-17T08:14:02;9.40;;;4.35;;
35959;SDS011;22043;50.970;7.192;2023-08-17T08:16:28;9.63;;;5.30;;
35959;SDS011;22043;50.970;7.192;2023-08-17T08:18:56;9.90;;;4.95;;
35959;SDS011;22043;50.970;7.192;2023-08-17T08:21:22;8.85;;;5.07;;
35959;SDS011;22043;50.970;7.192;2023-08-17T08:23:48;9.68;;;4.72;;
35959;SDS011;22043;50.970;7.192;2023-08-17T08:26:13;8.57;;;4.55;;
35959;SDS011;22043;50.970;7.192;2023-08-17T08:28:39;7.78;;;4.43;;
35959;SDS011;22043;50.970;7.192;2023-08-17T08:31:04;10.32;;;6.10;;
35959;SDS011;22043;50.970;7.192;2023-08-17T08:33:30;9.88;;;4.55;;
35959;SDS011;22043;50.970;7.192;2023-08-17T08:35:55;7.10;;;3.85;;
35959;SDS011;22043;50.970;7.192;2023-08-17T08:38:21;8.35;;;4.65;;
35959;SDS011;22043;50.970;7.192;2023-08-17T08:40:49;9.25;;;4.80;;
35959;SDS011;22043;50.970;7.192;2023-08-17T08:43:15;9.05;;;5.10;;
35959;SDS011;22043;50.970;7.192;2023-08-17T08:45:41;9.27;;;4.88;;
35959;SDS011;22043;50.970;7.192;2023-08-17T08:48:08;9.35;;;5.10;;
35959;SDS011;22043;50.970;7.192;2023-08-17T08:50:33;9.30;;;4.43;;
35959;SDS011;22043;50.970;7.192;2023-08-17T08:53:01;9.15;;;5.50;;
35959;SDS011;22043;50.970;7.192;2023-08-17T08:55:33;8.68;;;5.28;;
35959;SDS011;22043;50.970;7.192;2023-08-17T08:58:01;8.60;;;5.28;;
35959;SDS011;22043;50.970;7.192;2023-08-17T09:00:27;10.10;;;4.95;;
35959;SDS011;22043;50.970;7.192;2023-08-17T09:02:53;10.15;;;4.80;;
35959;SDS011;22043;50.970;7.192;2023-08-17T09:05:18;9.65;;;5.03;;
35959;SDS011;22043;50.970;7.192;2023-08-17T09:07:45;11.02;;;5.22;;
35959;SDS011;22043;50.970;7.192;2023-08-17T09:10:13;10.68;;;5.93;;
35959;SDS011;22043;50.970;7.192;2023-08-17T09:12:41;11.05;;;4.95;;
35959;SDS011;22043;50.970;7.192;2023-08-17T09:15:06;9.57;;;5.28;;
35959;SDS011;22043;50.970;7.192;2023-08-17T09:17:32;9.38;;;4.93;;
35959;SDS011;22043;50.970;7.192;2023-08-17T09:20:01;10.15;;;5.40;;
35959;SDS011;22043;50.970;7.192;2023-08-17T09:22:36;12.90;;;6.57;;
35959;SDS011;22043;50.970;7.192;2023-08-17T09:25:04;10.70;;;5.13;;
35959;SDS011;22043;50.970;7.192;2023-08-17T09:27:31;11.70;;;5.00;;
35959;SDS011;22043;50.970;7.192;2023-08-17T09:30:08;13.40;;;5.43;;
35959;SDS011;22043;50.970;7.192;2023-08-17T09:32:34;9.38;;;5.53;;
35959;SDS011;22043;50.970;7.192;2023-08-17T09:35:00;11.90;;;5.88;;
35959;SDS011;22043;50.970;7.192;2023-08-17T09:37:30;18.35;;;5.97;;
35959;SDS011;22043;50.970;7.192;2023-08-17T09:39:56;10.07;;;5.30;;
35959;SDS011;22043;50.970;7.192;2023-08-17T09:42:22;10.23;;;5.22;;
35959;SDS011;22043;50.970;7.192;2023-08-17T09:44:51;14.43;;;5.18;;
35959;SDS011;22043;50.970;7.192;2023-08-17T09:47:17;8.82;;;4.82;;
35959;SDS011;22043;50.970;7.192;2023-08-17T09:49:49;11.38;;;4.50;;
35959;SDS011;22043;50.970;7.192;2023-08-17T09:52:15;12.13;;;5.28;;
35959;SDS011;22043;50.970;7.192;2023-08-17T09:54:41;9.68;;;4.95;;
35959;SDS011;22043;50.970;7.192;2023-08-17T09:57:07;8.40;;;4.72;;
35959;SDS011;22043;50.970;7.192;2023-08-17T09:59:33;12.60;;;5.68;;
35959;SDS011;22043;50.970;7.192;2023-08-17T10:01:58;10.13;;;5.53;;
35959;SDS011;22043;50.970;7.192;2023-08-17T10:04:24;10.27;;;4.95;;
35959;SDS011;22043;50.970;7.192;2023-08-17T10:06:58;9.20;;;5.05;;
35959;SDS011;22043;50.970;7.192;2023-08-17T10:09:27;10.15;;;4.72;;
35959;SDS011;22043;50.970;7.192;2023-08-17T10:11:57;8.68;;;4.93;;
35959;SDS011;22043;50.970;7.192;2023-08-17T10:14:23;8.52;;;5.00;;
35959;SDS011;22043;50.970;7.192;2023-08-17T10:16:59;10.55;;;5.70;;
35959;SDS011;22043;50.970;7.192;2023-08-17T10:19:30;10.35;;;5.80;;
35959;SDS011;22043;50.970;7.192;2023-08-17T10:22:03;12.50;;;5.20;;
35959;SDS011;22043;50.970;7.192;2023-08-17T10:24:32;10.25;;;5.38;;
35959;SDS011;22043;50.970;7.192;2023-08-17T10:27:01;8.60;;;4.70;;
35959;SDS011;22043;50.970;7.192;2023-08-17T10:29:26;9.95;;;5.22;;
35959;SDS011;22043;50.970;7.192;2023-08-17T10:31:52;10.05;;;4.43;;
35959;SDS011;22043;50.970;7.192;2023-08-17T10:34:18;9.25;;;4.13;;
35959;SDS011;22043;50.970;7.192;2023-08-17T10:36:44;7.88;;;4.00;;
35959;SDS011;22043;50.970;7.192;2023-08-17T10:39:26;10.52;;;4.93;;
35959;SDS011;22043;50.970;7.192;2023-08-17T10:41:52;7.65;;;3.78;;
35959;SDS011;22043;50.970;7.192;2023-08-17T10:44:37;8.02;;;4.10;;
35959;SDS011;22043;50.970;7.192;2023-08-17T10:47:22;7.50;;;4.05;;
35959;SDS011;22043;50.970;7.192;2023-08-17T10:49:50;6.35;;;3.58;;
35959;SDS011;22043;50.970;7.192;2023-08-17T10:52:33;6.57;;;3.67;;
35959;SDS011;22043;50.970;7.192;2023-08-17T10:55:06;5.18;;;3.25;;
35959;SDS011;22043;50.970;7.192;2023-08-17T10:57:37;6.50;;;4.10;;
35959;SDS011;22043;50.970;7.192;2023-08-17T11:00:08;6.97;;;2.92;;
35959;SDS011;22043;50.970;7.192;2023-08-17T11:02:38;10.65;;;3.80;;
35959;SDS011;22043;50.970;7.192;2023-08-17T11:05:04;6.35;;;3.08;;
35959;SDS011;22043;50.970;7.192;2023-08-17T11:10:12;5.25;;;3.30;;
35959;SDS011;22043;50.970;7.192;2023-08-17T11:12:40;5.63;;;3.28;;
35959;SDS011;22043;50.970;7.192;2023-08-17T11:15:06;7.85;;;4.05;;
35959;SDS011;22043;50.970;7.192;2023-08-17T11:17:32;5.95;;;3.25;;
35959;SDS011;22043;50.970;7.192;2023-08-17T11:19:57;5.57;;;3.22;;
35959;SDS011;22043;50.970;7.192;2023-08-17T11:22:23;7.15;;;3.35;;
35959;SDS011;22043;50.970;7.192;2023-08-17T11:24:49;6.10;;;3.20;;
35959;SDS011;22043;50.970;7.192;2023-08-17T11:27:14;5.55;;;3.60;;
35959;SDS011;22043;50.970;7.192;2023-08-17T11:29:40;7.53;;;4.07;;
35959;SDS011;22043;50.970;7.192;2023-08-17T11:32:05;11.00;;;3.90;;
35959;SDS011;22043;50.970;7.192;2023-08-17T11:34:30;6.75;;;3.75;;
35959;SDS011;22043;50.970;7.192;2023-08-17T11:36:57;6.32;;;3.70;;
35959;SDS011;22043;50.970;7.192;2023-08-17T11:39:22;6.93;;;3.10;;
35959;SDS011;22043;50.970;7.192;2023-08-17T11:41:48;8.52;;;3.50;;
35959;SDS011;22043;50.970;7.192;2023-08-17T11:44:14;6.15;;;3.95;;
35959;SDS011;22043;50.970;7.192;2023-08-17T11:46:40;6.22;;;3.63;;
35959;SDS011;22043;50.970;7.192;2023-08-17T11:49:06;6.18;;;3.50;;
35959;SDS011;22043;50.970;7.192;2023-08-17T11:51:31;6.90;;;3.97;;
35959;SDS011;22043;50.970;7.192;2023-08-17T11:54:00;5.43;;;3.60;;
35959;SDS011;22043;50.970;7.192;2023-08-17T11:56:28;6.38;;;3.95;;
35959;SDS011;22043;50.970;7.192;2023-08-17T11:58:53;6.25;;;3.42;;
35959;SDS011;22043;50.970;7.192;2023-08-17T12:01:18;5.18;;;3.05;;
35959;SDS011;22043;50.970;7.192;2023-08-17T12:03:44;5.90;;;3.20;;
35959;SDS011;22043;50.970;7.192;2023-08-17T12:06:10;5.20;;;3.40;;
35959;SDS011;22043;50.970;7.192;2023-08-17T12:11:03;6.85;;;3.25;;
35959;SDS011;22043;50.970;7.192;2023-08-17T12:13:34;6.13;;;3.63;;
35959;SDS011;22043;50.970;7.192;2023-08-17T12:16:00;6.75;;;3.72;;
35959;SDS011;22043;50.970;7.192;2023-08-17T12:18:26;9.27;;;3.75;;
35959;SDS011;22043;50.970;7.192;2023-08-17T12:20:52;8.00;;;4.38;;
35959;SDS011;22043;50.970;7.192;2023-08-17T12:23:18;6.70;;;3.60;;
35959;SDS011;22043;50.970;7.192;2023-08-17T12:25:43;9.52;;;4.13;;
35959;SDS011;22043;50.970;7.192;2023-08-17T12:28:12;5.45;;;3.05;;
35959;SDS011;22043;50.970;7.192;2023-08-17T12:30:37;8.05;;;3.35;;
35959;SDS011;22043;50.970;7.192;2023-08-17T12:33:03;5.60;;;2.97;;
35959;SDS011;22043;50.970;7.192;2023-08-17T12:35:29;5.72;;;3.03;;
35959;SDS011;22043;50.970;7.192;2023-08-17T12:37:56;7.07;;;3.73;;
35959;SDS011;22043;50.970;7.192;2023-08-17T12:40:21;6.57;;;3.33;;
35959;SDS011;22043;50.970;7.192;2023-08-17T12:42:47;5.70;;;3.00;;
35959;SDS011;22043;50.970;7.192;2023-08-17T12:45:13;6.15;;;3.28;;
35959;SDS011;22043;50.970;7.192;2023-08-17T12:47:39;6.25;;;3.30;;
35959;SDS011;22043;50.970;7.192;2023-08-17T12:50:05;4.57;;;3.33;;
35959;SDS011;22043;50.970;7.192;2023-08-17T12:52:30;5.63;;;2.80;;
35959;SDS011;22043;50.970;7.192;2023-08-17T12:54:56;5.38;;;3.30;;
35959;SDS011;22043;50.970;7.192;2023-08-17T12:57:22;5.43;;;2.80;;
35959;SDS011;22043;50.970;7.192;2023-08-17T12:59:47;5.97;;;3.20;;
35959;SDS011;22043;50.970;7.192;2023-08-17T13:02:12;4.50;;;2.70;;
35959;SDS011;22043;50.970;7.192;2023-08-17T13:04:39;4.57;;;3.30;;
35959;SDS011;22043;50.970;7.192;2023-08-17T13:07:04;6.53;;;3.38;;
35959;SDS011;22043;50.970;7.192;2023-08-17T13:09:30;5.88;;;3.03;;
35959;SDS011;22043;50.970;7.192;2023-08-17T13:11:55;6.90;;;2.83;;
35959;SDS011;22043;50.970;7.192;2023-08-17T13:14:21;5.72;;;2.78;;
35959;SDS011;22043;50.970;7.192;2023-08-17T13:16:48;5.43;;;3.10;;
35959;SDS011;22043;50.970;7.192;2023-08-17T13:19:14;6.85;;;2.60;;
35959;SDS011;22043;50.970;7.192;2023-08-17T13:21:40;5.97;;;2.70;;
35959;SDS011;22043;50.970;7.192;2023-08-17T13:24:05;7.80;;;3.22;;
35959;SDS011;22043;50.970;7.192;2023-08-17T13:26:31;8.40;;;2.67;;
35959;SDS011;22043;50.970;7.192;2023-08-17T13:28:57;5.95;;;2.95;;
35959;SDS011;22043;50.970;7.192;2023-08-17T13:31:22;5.53;;;3.20;;
35959;SDS011;22043;50.970;7.192;2023-08-17T13:33:48;4.80;;;2.90;;
35959;SDS011;22043;50.970;7.192;2023-08-17T13:36:13;7.82;;;3.10;;
35959;SDS011;22043;50.970;7.192;2023-08-17T13:38:39;5.20;;;2.88;;
35959;SDS011;22043;50.970;7.192;2023-08-17T13:41:04;5.45;;;2.92;;
35959;SDS011;22043;50.970;7.192;2023-08-17T13:43:30;6.28;;;3.85;;
35959;SDS011;22043;50.970;7.192;2023-08-17T13:45:55;6.50;;;2.83;;
35959;SDS011;22043;50.970;7.192;2023-08-17T13:48:21;5.85;;;2.97;;
35959;SDS011;22043;50.970;7.192;2023-08-17T13:50:46;6.03;;;3.22;;
35959;SDS011;22043;50.970;7.192;2023-08-17T13:53:12;5.80;;;3.53;;
35959;SDS011;22043;50.970;7.192;2023-08-17T13:55:37;7.15;;;3.88;;
35959;SDS011;22043;50.970;7.192;2023-08-17T13:58:03;5.45;;;2.95;;
35959;SDS011;22043;50.970;7.192;2023-08-17T14:00:28;11.48;;;3.45;;
35959;SDS011;22043;50.970;7.192;2023-08-17T14:02:54;6.00;;;2.72;;
35959;SDS011;22043;50.970;7.192;2023-08-17T14:05:19;5.93;;;3.47;;
35959;SDS011;22043;50.970;7.192;2023-08-17T14:07:45;7.43;;;3.53;;
35959;SDS011;22043;50.970;7.192;2023-08-17T14:10:11;5.45;;;3.25;;
35959;SDS011;22043;50.970;7.192;2023-08-17T14:12:39;7.85;;;3.53;;
35959;SDS011;22043;50.970;7.192;2023-08-17T14:15:05;5.57;;;3.05;;
35959;SDS011;22043;50.970;7.192;2023-08-17T14:17:32;6.70;;;3.45;;
35959;SDS011;22043;50.970;7.192;2023-08-17T14:19:58;5.55;;;3.50;;
35959;SDS011;22043;50.970;7.192;2023-08-17T14:22:23;6.38;;;3.28;;
35959;SDS011;22043;50.970;7.192;2023-08-17T14:24:49;6.35;;;4.55;;
35959;SDS011;22043;50.970;7.192;2023-08-17T14:27:14;7.72;;;3.60;;
35959;SDS011;22043;50.970;7.192;2023-08-17T14:29:39;6.07;;;3.40;;
35959;SDS011;22043;50.970;7.192;2023-08-17T14:32:05;7.93;;;3.60;;
35959;SDS011;22043;50.970;7.192;2023-08-17T14:34:30;7.70;;;4.20;;
35959;SDS011;22043;50.970;7.192;2023-08-17T14:36:56;6.07;;;3.95;;
35959;SDS011;22043;50.970;7.192;2023-08-17T14:39:21;6.07;;;3.65;;
35959;SDS011;22043;50.970;7.192;2023-08-17T14:41:47;6.68;;;3.80;;
35959;SDS011;22043;50.970;7.192;2023-08-17T14:44:12;5.53;;;3.30;;
35959;SDS011;22043;50.970;7.192;2023-08-17T14:46:37;6.43;;;3.78;;